sensor_id;sensor_type;location;lat;lon;timestamp;P1;durP1;ratioP1;P2;durP2;ratioP2
70078;SDS011;57451;52.496;13.456;2023-09-12T00:00:46;21.45;;;12.52;;
70078;SDS011;57451;52.496;13.456;2023-09-12T00:03:14;18.20;;;13.20;;
70078;SDS011;57451;52.496;13.456;2023-09-12T00:05:50;19.63;;;12.77;;
70078;SDS011;57451;52.496;13.456;2023-09-12T00:08:18;19.67;;;13.77;;
70078;SDS011;57451;52.496;13.456;2023-09-12T00:10:45;19.58;;;13.38;;
70078;SDS011;57451;52.496;13.456;2023-09-12T00:13:14;19.27;;;13.70;;
70078;SDS011;57451;52.496;13.456;2023-09-12T00:15:41;19.52;;;13.15;;
70078;SDS011;57451;52.496;13.456;2023-09-12T00:18:09;19.83;;;12.85;;
70078;SDS011;57451;52.496;13.456;2023-09-12T00:20:36;20.57;;;13.40;;
70078;SDS011;57451;52.496;13.456;2023-09-12T00:23:04;21.33;;;13.35;;
70078;SDS011;57451;52.496;13.456;2023-09-12T00:25:31;18.50;;;13.30;;
70078;SDS011;57451;52.496;13.456;2023-09-12T00:27:59;18.60;;;13.23;;
70078;SDS011;57451;52.496;13.456;2023-09-12T00:30:27;18.90;;;12.80;;
70078;SDS011;57451;52.496;13.456;2023-09-12T00:32:55;19.63;;;13.90;;
70078;SDS011;57451;52.496;13.456;2023-09-12T00:35:22;22.52;;;12.85;;
70078;SDS011;57451;52.496;13.456;2023-09-12T00:37:50;21.45;;;13.57;;
70078;SDS011;57451;52.496;13.456;2023-09-12T00:40:18;22.90;;;13.32;;
70078;SDS011;57451;52.496;13.456;2023-09-12T00:42:45;19.33;;;13.80;;
70078;SDS011;57451;52.496;13.456;2023-09-12T00:45:13;19.27;;;12.97;;
70078;SDS011;57451;52.496;13.456;2023-09-12T00:47:42;22.85;;;13.95;;
70078;SDS011;57451;52.496;13.456;2023-09-12T00:50:10;20.58;;;13.05;;
70078;SDS011;57451;52.496;13.456;2023-09-12T00:52:38;20.00;;;13.93;;
70078;SDS011;57451;52.496;13.456;2023-09-12T00:55:06;21.48;;;13.30;;
70078;SDS011;57451;52.496;13.456;2023-09-12T00:57:34;17.77;;;13.63;;
70078;SDS011;57451;52.496;13.456;2023-09-12T01:00:02;20.42;;;13.52;;
70078;SDS011;57451;52.496;13.456;2023-09-12T01:02:42;18.00;;;13.23;;
70078;SDS011;57451;52.496;13.456;2023-09-12T01:05:11;19.52;;;13.52;;
70078;SDS011;57451;52.496;13.456;2023-09-12T01:07:41;17.60;;;12.82;;
70078;SDS011;57451;52.496;13.456;2023-09-12T01:10:10;16.63;;;13.47;;
70078;SDS011;57451;52.496;13.456;2023-09-12T01:12:37;18.42;;;12.77;;
70078;SDS011;57451;52.496;13.456;2023-09-12T01:15:05;17.85;;;12.55;;
70078;SDS011;57451;52.496;13.456;2023-09-12T01:17:42;18.77;;;13.20;;
70078;SDS011;57451;52.496;13.456;2023-09-12T01:20:11;18.02;;;13.02;;
70078;SDS011;57451;52.496;13.456;2023-09-12T01:22:56;17.63;;;13.77;;
70078;SDS011;57451;52.496;13.456;2023-09-12T01:28:29;18.95;;;13.30;;
70078;SDS011;57451;52.496;13.456;2023-09-12T01:31:02;19.40;;;13.25;;
70078;SDS011;57451;52.496;13.456;2023-09-12T01:33:30;18.42;;;12.60;;
70078;SDS011;57451;52.496;13.456;2023-09-12T01:35:58;21.23;;;13.73;;
70078;SDS011;57451;52.496;13.456;2023-09-12T01:38:26;18.75;;;13.32;;
70078;SDS011;57451;52.496;13.456;2023-09-12T01:40:54;18.83;;;13.15;;
70078;SDS011;57451;52.496;13.456;2023-09-12T01:43:23;18.63;;;13.45;;
70078;SDS011;57451;52.496;13.456;2023-09-12T01:45:54;17.70;;;13.43;;
70078;SDS011;57451;52.496;13.456;2023-09-12T01:48:23;20.90;;;13.10;;
70078;SDS011;57451;52.496;13.456;2023-09-12T01:50:53;18.98;;;14.00;;
70078;SDS011;57451;52.496;13.456;2023-09-12T01:53:21;19.55;;;13.77;;
70078;SDS011;57451;52.496;13.456;2023-09-12T01:55:48;20.20;;;13.43;;
70078;SDS011;57451;52.496;13.456;2023-09-12T01:58:16;20.13;;;12.93;;
70078;SDS011;57451;52.496;13.456;2023-09-12T02:00:44;21.33;;;13.77;;
70078;SDS011;57451;52.496;13.456;2023-09-12T02:03:13;17.92;;;12.80;;
70078;SDS011;57451;52.496;13.456;2023-09-12T02:05:40;16.98;;;12.18;;
70078;SDS011;57451;52.496;13.456;2023-09-12T02:08:08;19.20;;;13.18;;
70078;SDS011;57451;52.496;13.456;2023-09-12T02:10:35;19.80;;;13.27;;
70078;SDS011;57451;52.496;13.456;2023-09-12T02:13:03;17.87;;;12.70;;
70078;SDS011;57451;52.496;13.456;2023-09-12T02:15:30;21.38;;;13.10;;
70078;SDS011;57451;52.496;13.456;2023-09-12T02:17:58;17.20;;;12.77;;
70078;SDS011;57451;52.496;13.456;2023-09-12T02:20:26;19.42;;;13.15;;
70078;SDS011;57451;52.496;13.456;2023-09-12T02:22:54;21.88;;;13.05;;
70078;SDS011;57451;52.496;13.456;2023-09-12T02:25:22;18.67;;;12.83;;
70078;SDS011;57451;52.496;13.456;2023-09-12T02:27:49;17.58;;;12.63;;
70078;SDS011;57451;52.496;13.456;2023-09-12T02:30:16;18.55;;;12.45;;
70078;SDS011;57451;52.496;13.456;2023-09-12T02:32:44;17.40;;;12.70;;
70078;SDS011;57451;52.496;13.456;2023-09-12T02:35:11;15.95;;;12.20;;
70078;SDS011;57451;52.496;13.456;2023-09-12T02:37:40;17.70;;;12.40;;
70078;SDS011;57451;52.496;13.456;2023-09-12T02:40:08;17.45;;;12.35;;
70078;SDS011;57451;52.496;13.456;2023-09-12T02:42:38;16.17;;;12.43;;
70078;SDS011;57451;52.496;13.456;2023-09-12T02:45:06;18.20;;;12.60;;
70078;SDS011;57451;52.496;13.456;2023-09-12T02:47:34;17.98;;;12.68;;
70078;SDS011;57451;52.496;13.456;2023-09-12T02:50:01;17.33;;;12.60;;
70078;SDS011;57451;52.496;13.456;2023-09-12T02:52:29;17.48;;;12.05;;
70078;SDS011;57451;52.496;13.456;2023-09-12T02:54:58;17.85;;;13.18;;
70078;SDS011;57451;52.496;13.456;2023-09-12T02:57:25;17.63;;;12.82;;
70078;SDS011;57451;52.496;13.456;2023-09-12T02:59:53;18.70;;;13.20;;
70078;SDS011;57451;52.496;13.456;2023-09-12T03:02:20;17.13;;;12.87;;
70078;SDS011;57451;52.496;13.456;2023-09-12T03:04:48;16.50;;;12.75;;
70078;SDS011;57451;52.496;13.456;2023-09-12T03:07:16;18.17;;;13.20;;
70078;SDS011;57451;52.496;13.456;2023-09-12T03:09:43;18.40;;;12.70;;
70078;SDS011;57451;52.496;13.456;2023-09-12T03:12:12;19.00;;;12.77;;
70078;SDS011;57451;52.496;13.456;2023-09-12T03:14:39;19.20;;;12.63;;
70078;SDS011;57451;52.496;13.456;2023-09-12T03:17:06;19.00;;;12.75;;
70078;SDS011;57451;52.496;13.456;2023-09-12T03:19:34;19.50;;;12.93;;
70078;SDS011;57451;52.496;13.456;2023-09-12T03:22:01;20.73;;;13.07;;
70078;SDS011;57451;52.496;13.456;2023-09-12T03:24:29;17.98;;;12.70;;
70078;SDS011;57451;52.496;13.456;2023-09-12T03:26:58;18.37;;;12.47;;
70078;SDS011;57451;52.496;13.456;2023-09-12T03:29:26;20.77;;;13.27;;
70078;SDS011;57451;52.496;13.456;2023-09-12T03:31:54;18.95;;;13.43;;
70078;SDS011;57451;52.496;13.456;2023-09-12T03:34:21;18.35;;;13.52;;
70078;SDS011;57451;52.496;13.456;2023-09-12T03:36:49;19.40;;;13.18;;
70078;SDS011;57451;52.496;13.456;2023-09-12T03:39:16;17.63;;;13.33;;
70078;SDS011;57451;52.496;13.456;2023-09-12T03:41:44;19.77;;;13.60;;
70078;SDS011;57451;52.496;13.456;2023-09-12T03:44:11;21.58;;;13.82;;
70078;SDS011;57451;52.496;13.456;2023-09-12T03:46:40;21.42;;;14.65;;
70078;SDS011;57451;52.496;13.456;2023-09-12T03:49:08;23.73;;;14.85;;
70078;SDS011;57451;52.496;13.456;2023-09-12T03:51:35;20.10;;;14.13;;
70078;SDS011;57451;52.496;13.456;2023-09-12T03:54:05;18.70;;;14.23;;
70078;SDS011;57451;52.496;13.456;2023-09-12T03:56:32;19.92;;;14.02;;
70078;SDS011;57451;52.496;13.456;2023-09-12T03:59:00;16.83;;;14.07;;
70078;SDS011;57451;52.496;13.456;2023-09-12T04:01:27;20.27;;;14.65;;
70078;SDS011;57451;52.496;13.456;2023-09-12T04:03:56;17.53;;;13.77;;
70078;SDS011;57451;52.496;13.456;2023-09-12T04:06:28;18.08;;;14.65;;
70078;SDS011;57451;52.496;13.456;2023-09-12T04:08:56;21.45;;;15.48;;
70078;SDS011;57451;52.496;13.456;2023-09-12T04:11:23;19.05;;;14.88;;
70078;SDS011;57451;52.496;13.456;2023-09-12T04:14:10;20.60;;;13.90;;
70078;SDS011;57451;52.496;13.456;2023-09-12T04:16:37;18.83;;;14.77;;
70078;SDS011;57451;52.496;13.456;2023-09-12T04:19:06;21.17;;;15.13;;
70078;SDS011;57451;52.496;13.456;2023-09-12T04:21:33;19.02;;;14.68;;
70078;SDS011;57451;52.496;13.456;2023-09-12T04:24:01;21.23;;;15.60;;
70078;SDS011;57451;52.496;13.456;2023-09-12T04:26:29;21.92;;;15.30;;
70078;SDS011;57451;52.496;13.456;2023-09-12T04:28:56;21.40;;;15.43;;
70078;SDS011;57451;52.496;13.456;2023-09-12T04:31:24;23.80;;;15.07;;
70078;SDS011;57451;52.496;13.456;2023-09-12T04:33:51;22.60;;;15.93;;
70078;SDS011;57451;52.496;13.456;2023-09-12T04:36:20;19.77;;;15.75;;
70078;SDS011;57451;52.496;13.456;2023-09-12T04:38:48;23.42;;;16.08;;
70078;SDS011;57451;52.496;13.456;2023-09-12T04:41:16;23.43;;;15.60;;
70078;SDS011;57451;52.496;13.456;2023-09-12T04:43:44;23.30;;;15.38;;
70078;SDS011;57451;52.496;13.456;2023-09-12T04:46:11;21.42;;;15.63;;
70078;SDS011;57451;52.496;13.456;2023-09-12T04:48:40;24.27;;;16.25;;
70078;SDS011;57451;52.496;13.456;2023-09-12T04:51:08;23.38;;;16.33;;
70078;SDS011;57451;52.496;13.456;2023-09-12T04:53:37;23.10;;;16.60;;
70078;SDS011;57451;52.496;13.456;2023-09-12T04:56:04;22.80;;;17.00;;
70078;SDS011;57451;52.496;13.456;2023-09-12T04:58:33;25.80;;;16.92;;
70078;SDS011;57451;52.496;13.456;2023-09-12T05:01:00;24.23;;;17.50;;
70078;SDS011;57451;52.496;13.456;2023-09-12T05:03:29;20.45;;;16.77;;
70078;SDS011;57451;52.496;13.456;2023-09-12T05:05:56;23.13;;;18.37;;
70078;SDS011;57451;52.496;13.456;2023-09-12T05:08:25;23.63;;;17.38;;
70078;SDS011;57451;52.496;13.456;2023-09-12T05:10:54;22.33;;;17.85;;
70078;SDS011;57451;52.496;13.456;2023-09-12T05:13:21;22.67;;;17.67;;
70078;SDS011;57451;52.496;13.456;2023-09-12T05:15:49;26.75;;;18.25;;
70078;SDS011;57451;52.496;13.456;2023-09-12T05:18:16;21.33;;;17.20;;
70078;SDS011;57451;52.496;13.456;2023-09-12T05:20:45;24.88;;;18.42;;
70078;SDS011;57451;52.496;13.456;2023-09-12T05:23:12;25.88;;;19.27;;
70078;SDS011;57451;52.496;13.456;2023-09-12T05:25:39;24.00;;;19.67;;
70078;SDS011;57451;52.496;13.456;2023-09-12T05:28:08;24.58;;;18.27;;
70078;SDS011;57451;52.496;13.456;2023-09-12T05:30:35;27.70;;;19.33;;
70078;SDS011;57451;52.496;13.456;2023-09-12T05:33:03;24.25;;;18.40;;
70078;SDS011;57451;52.496;13.456;2023-09-12T05:35:31;24.75;;;18.83;;
70078;SDS011;57451;52.496;13.456;2023-09-12T05:37:59;26.85;;;17.95;;
70078;SDS011;57451;52.496;13.456;2023-09-12T05:40:26;24.15;;;18.23;;
70078;SDS011;57451;52.496;13.456;2023-09-12T05:42:54;25.50;;;18.17;;
70078;SDS011;57451;52.496;13.456;2023-09-12T05:45:23;24.73;;;18.20;;
70078;SDS011;57451;52.496;13.456;2023-09-12T05:47:50;23.77;;;19.15;;
70078;SDS011;57451;52.496;13.456;2023-09-12T05:50:18;25.17;;;18.55;;
70078;SDS011;57451;52.496;13.456;2023-09-12T05:52:46;31.45;;;18.05;;
70078;SDS011;57451;52.496;13.456;2023-09-12T05:55:14;23.60;;;17.90;;
70078;SDS011;57451;52.496;13.456;2023-09-12T05:57:42;24.17;;;18.13;;
70078;SDS011;57451;52.496;13.456;2023-09-12T06:00:10;25.25;;;17.80;;
70078;SDS011;57451;52.496;13.456;2023-09-12T06:02:41;25.73;;;18.40;;
70078;SDS011;57451;52.496;13.456;2023-09-12T06:05:09;25.35;;;17.73;;
70078;SDS011;57451;52.496;13.456;2023-09-12T06:07:37;22.70;;;17.90;;
70078;SDS011;57451;52.496;13.456;2023-09-12T06:10:08;24.60;;;17.25;;
70078;SDS011;57451;52.496;13.456;2023-09-12T06:12:36;22.88;;;16.70;;
70078;SDS011;57451;52.496;13.456;2023-09-12T06:15:04;21.55;;;16.30;;
70078;SDS011;57451;52.496;13.456;2023-09-12T06:17:32;22.40;;;16.80;;
70078;SDS011;57451;52.496;13.456;2023-09-12T06:20:01;23.73;;;17.53;;
70078;SDS011;57451;52.496;13.456;2023-09-12T06:22:30;27.17;;;17.60;;
70078;SDS011;57451;52.496;13.456;2023-09-12T06:24:59;27.88;;;18.40;;
70078;SDS011;57451;52.496;13.456;2023-09-12T06:27:26;27.90;;;16.92;;
70078;SDS011;57451;52.496;13.456;2023-09-12T06:29:54;29.10;;;17.67;;
70078;SDS011;57451;52.496;13.456;2023-09-12T06:32:21;29.57;;;18.33;;
70078;SDS011;57451;52.496;13.456;2023-09-12T06:34:48;23.13;;;16.25;;
70078;SDS011;57451;52.496;13.456;2023-09-12T06:37:17;30.13;;;17.90;;
70078;SDS011;57451;52.496;13.456;2023-09-12T06:39:48;22.58;;;16.77;;
70078;SDS011;57451;52.496;13.456;2023-09-12T06:42:16;24.55;;;16.40;;
70078;SDS011;57451;52.496;13.456;2023-09-12T06:44:45;26.03;;;15.90;;
70078;SDS011;57451;52.496;13.456;2023-09-12T06:47:12;27.85;;;16.00;;
70078;SDS011;57451;52.496;13.456;2023-09-12T06:49:40;24.92;;;16.20;;
70078;SDS011;57451;52.496;13.456;2023-09-12T06:52:07;28.08;;;15.50;;
70078;SDS011;57451;52.496;13.456;2023-09-12T06:54:38;22.00;;;14.77;;
70078;SDS011;57451;52.496;13.456;2023-09-12T06:57:05;25.33;;;15.30;;
70078;SDS011;57451;52.496;13.456;2023-09-12T06:59:32;22.92;;;14.05;;
70078;SDS011;57451;52.496;13.456;2023-09-12T07:02:00;20.45;;;12.52;;
70078;SDS011;57451;52.496;13.456;2023-09-12T07:04:27;20.17;;;11.88;;
70078;SDS011;57451;52.496;13.456;2023-09-12T07:06:56;16.85;;;11.50;;
70078;SDS011;57451;52.496;13.456;2023-09-12T07:09:23;14.97;;;11.07;;
70078;SDS011;57451;52.496;13.456;2023-09-12T07:11:52;15.10;;;9.82;;
70078;SDS011;57451;52.496;13.456;2023-09-12T07:14:20;17.83;;;10.65;;
70078;SDS011;57451;52.496;13.456;2023-09-12T07:16:48;14.57;;;9.82;;
70078;SDS011;57451;52.496;13.456;2023-09-12T07:19:15;14.13;;;9.77;;
70078;SDS011;57451;52.496;13.456;2023-09-12T07:21:43;13.00;;;9.30;;
70078;SDS011;57451;52.496;13.456;2023-09-12T07:24:10;14.43;;;9.38;;
70078;SDS011;57451;52.496;13.456;2023-09-12T07:26:37;15.10;;;9.95;;
70078;SDS011;57451;52.496;13.456;2023-09-12T07:29:06;13.05;;;9.38;;
70078;SDS011;57451;52.496;13.456;2023-09-12T07:31:34;15.45;;;9.73;;
70078;SDS011;57451;52.496;13.456;2023-09-12T07:34:01;15.83;;;10.13;;
70078;SDS011;57451;52.496;13.456;2023-09-12T07:36:32;14.38;;;9.38;;
70078;SDS011;57451;52.496;13.456;2023-09-12T07:38:59;17.27;;;9.85;;
70078;SDS011;57451;52.496;13.456;2023-09-12T07:41:27;15.80;;;9.75;;
70078;SDS011;57451;52.496;13.456;2023-09-12T07:43:54;15.20;;;9.23;;
70078;SDS011;57451;52.496;13.456;2023-09-12T07:46:23;17.33;;;9.70;;
70078;SDS011;57451;52.496;13.456;2023-09-12T07:48:51;15.65;;;10.00;;
70078;SDS011;57451;52.496;13.456;2023-09-12T07:51:19;16.55;;;10.13;;
70078;SDS011;57451;52.496;13.456;2023-09-12T07:53:47;15.77;;;9.50;;
70078;SDS011;57451;52.496;13.456;2023-09-12T07:56:14;15.52;;;9.35;;
70078;SDS011;57451;52.496;13.456;2023-09-12T07:58:41;14.73;;;9.00;;
70078;SDS011;57451;52.496;13.456;2023-09-12T08:01:09;17.20;;;9.18;;
70078;SDS011;57451;52.496;13.456;2023-09-12T08:03:39;20.27;;;8.90;;
70078;SDS011;57451;52.496;13.456;2023-09-12T08:06:10;15.98;;;8.45;;
70078;SDS011;57451;52.496;13.456;2023-09-12T08:08:37;13.93;;;8.23;;
70078;SDS011;57451;52.496;13.456;2023-09-12T08:11:05;14.10;;;8.53;;
70078;SDS011;57451;52.496;13.456;2023-09-12T08:13:32;14.65;;;8.07;;
70078;SDS011;57451;52.496;13.456;2023-09-12T08:15:59;14.40;;;7.90;;
70078;SDS011;57451;52.496;13.456;2023-09-12T08:18:28;15.80;;;8.30;;
70078;SDS011;57451;52.496;13.456;2023-09-12T08:20:58;20.63;;;8.18;;
70078;SDS011;57451;52.496;13.456;2023-09-12T08:23:25;13.87;;;7.20;;
70078;SDS011;57451;52.496;13.456;2023-09-12T08:25:53;13.35;;;7.93;;
70078;SDS011;57451;52.496;13.456;2023-09-12T08:28:20;15.15;;;7.57;;
70078;SDS011;57451;52.496;13.456;2023-09-12T08:30:47;17.38;;;7.32;;
70078;SDS011;57451;52.496;13.456;2023-09-12T08:33:15;16.95;;;6.82;;
70078;SDS011;57451;52.496;13.456;2023-09-12T08:35:42;18.37;;;6.60;;
70078;SDS011;57451;52.496;13.456;2023-09-12T08:38:11;14.32;;;7.30;;
70078;SDS011;57451;52.496;13.456;2023-09-12T08:40:39;14.18;;;7.40;;
70078;SDS011;57451;52.496;13.456;2023-09-12T08:43:07;16.67;;;7.03;;
70078;SDS011;57451;52.496;13.456;2023-09-12T08:45:35;17.40;;;7.28;;
70078;SDS011;57451;52.496;13.456;2023-09-12T08:48:03;13.70;;;7.00;;
70078;SDS011;57451;52.496;13.456;2023-09-12T08:50:33;13.70;;;6.85;;
70078;SDS011;57451;52.496;13.456;2023-09-12T08:53:01;14.45;;;6.95;;
70078;SDS011;57451;52.496;13.456;2023-09-12T08:55:35;15.07;;;6.88;;
70078;SDS011;57451;52.496;13.456;2023-09-12T08:58:04;13.20;;;6.97;;
70078;SDS011;57451;52.496;13.456;2023-09-12T09:00:34;14.00;;;6.97;;
70078;SDS011;57451;52.496;13.456;2023-09-12T09:03:03;12.85;;;6.47;;
70078;SDS011;57451;52.496;13.456;2023-09-12T09:05:31;17.00;;;7.38;;
70078;SDS011;57451;52.496;13.456;2023-09-12T09:08:02;15.13;;;7.30;;
70078;SDS011;57451;52.496;13.456;2023-09-12T09:10:33;10.43;;;6.53;;
70078;SDS011;57451;52.496;13.456;2023-09-12T09:13:16;11.20;;;6.23;;
70078;SDS011;57451;52.496;13.456;2023-09-12T09:15:44;11.55;;;6.10;;
70078;SDS011;57451;52.496;13.456;2023-09-12T09:18:12;10.80;;;5.63;;
70078;SDS011;57451;52.496;13.456;2023-09-12T09:20:41;11.52;;;5.75;;
70078;SDS011;57451;52.496;13.456;2023-09-12T09:23:12;14.93;;;6.20;;
70078;SDS011;57451;52.496;13.456;2023-09-12T09:25:41;12.23;;;6.37;;
70078;SDS011;57451;52.496;13.456;2023-09-12T09:28:15;12.52;;;6.30;;
70078;SDS011;57451;52.496;13.456;2023-09-12T09:30:44;12.32;;;5.90;;
70078;SDS011;57451;52.496;13.456;2023-09-12T09:33:14;13.90;;;6.78;;
70078;SDS011;57451;52.496;13.456;2023-09-12T09:35:42;13.80;;;6.95;;
70078;SDS011;57451;52.496;13.456;2023-09-12T09:38:10;15.70;;;6.80;;
70078;SDS011;57451;52.496;13.456;2023-09-12T09:40:44;12.75;;;6.78;;
70078;SDS011;57451;52.496;13.456;2023-09-12T09:43:12;14.95;;;6.22;;
70078;SDS011;57451;52.496;13.456;2023-09-12T09:45:42;12.73;;;6.75;;
70078;SDS011;57451;52.496;13.456;2023-09-12T09:48:17;15.60;;;7.00;;
70078;SDS011;57451;52.496;13.456;2023-09-12T09:50:44;15.90;;;7.00;;
70078;SDS011;57451;52.496;13.456;2023-09-12T09:53:12;16.33;;;6.80;;
70078;SDS011;57451;52.496;13.456;2023-09-12T09:55:39;28.45;;;8.93;;
70078;SDS011;57451;52.496;13.456;2023-09-12T09:58:10;15.98;;;7.88;;
70078;SDS011;57451;52.496;13.456;2023-09-12T10:00:43;15.27;;;7.88;;
70078;SDS011;57451;52.496;13.456;2023-09-12T10:03:11;19.70;;;8.60;;
70078;SDS011;57451;52.496;13.456;2023-09-12T10:05:45;13.70;;;7.55;;
70078;SDS011;57451;52.496;13.456;2023-09-12T10:08:15;14.00;;;7.57;;
70078;SDS011;57451;52.496;13.456;2023-09-12T10:10:44;11.77;;;7.75;;
70078;SDS011;57451;52.496;13.456;2023-09-12T10:13:14;11.32;;;7.50;;
70078;SDS011;57451;52.496;13.456;2023-09-12T10:15:43;13.25;;;8.18;;
70078;SDS011;57451;52.496;13.456;2023-09-12T10:18:14;15.52;;;8.35;;
70078;SDS011;57451;52.496;13.456;2023-09-12T10:20:58;18.80;;;9.43;;
70078;SDS011;57451;52.496;13.456;2023-09-12T10:23:34;12.02;;;8.50;;
70078;SDS011;57451;52.496;13.456;2023-09-12T10:26:09;12.27;;;8.70;;
70078;SDS011;57451;52.496;13.456;2023-09-12T10:28:41;12.40;;;9.00;;
70078;SDS011;57451;52.496;13.456;2023-09-12T10:31:10;13.73;;;8.80;;
70078;SDS011;57451;52.496;13.456;2023-09-12T10:33:39;16.27;;;9.70;;
70078;SDS011;57451;52.496;13.456;2023-09-12T10:36:08;15.95;;;9.13;;
70078;SDS011;57451;52.496;13.456;2023-09-12T10:38:38;14.90;;;8.93;;
70078;SDS011;57451;52.496;13.456;2023-09-12T10:41:09;14.52;;;9.13;;
70078;SDS011;57451;52.496;13.456;2023-09-12T10:43:38;16.02;;;9.23;;
70078;SDS011;57451;52.496;13.456;2023-09-12T10:46:09;17.13;;;9.27;;
70078;SDS011;57451;52.496;13.456;2023-09-12T10:48:37;14.20;;;8.38;;
70078;SDS011;57451;52.496;13.456;2023-09-12T10:51:07;14.27;;;7.72;;
70078;SDS011;57451;52.496;13.456;2023-09-12T10:53:38;12.38;;;8.20;;
70078;SDS011;57451;52.496;13.456;2023-09-12T10:56:16;12.35;;;7.55;;
70078;SDS011;57451;52.496;13.456;2023-09-12T11:01:42;14.65;;;8.05;;
70078;SDS011;57451;52.496;13.456;2023-09-12T11:04:33;14.02;;;7.47;;
70078;SDS011;57451;52.496;13.456;2023-09-12T11:07:01;13.17;;;7.27;;
70078;SDS011;57451;52.496;13.456;2023-09-12T11:09:57;12.63;;;7.47;;
70078;SDS011;57451;52.496;13.456;2023-09-12T11:12:45;14.93;;;7.40;;
70078;SDS011;57451;52.496;13.456;2023-09-12T11:15:15;11.63;;;7.00;;
70078;SDS011;57451;52.496;13.456;2023-09-12T11:17:43;12.57;;;7.30;;
70078;SDS011;57451;52.496;13.456;2023-09-12T11:20:11;17.00;;;7.67;;
70078;SDS011;57451;52.496;13.456;2023-09-12T11:22:40;13.55;;;7.40;;
70078;SDS011;57451;52.496;13.456;2023-09-12T11:25:18;14.30;;;7.45;;
70078;SDS011;57451;52.496;13.456;2023-09-12T11:28:02;15.85;;;7.47;;
70078;SDS011;57451;52.496;13.456;2023-09-12T11:30:35;14.10;;;8.13;;
70078;SDS011;57451;52.496;13.456;2023-09-12T11:33:03;13.45;;;7.45;;
70078;SDS011;57451;52.496;13.456;2023-09-12T11:35:35;13.80;;;7.25;;
70078;SDS011;57451;52.496;13.456;2023-09-12T11:38:09;13.90;;;7.93;;
70078;SDS011;57451;52.496;13.456;2023-09-12T11:40:43;13.63;;;7.60;;
70078;SDS011;57451;52.496;13.456;2023-09-12T11:43:20;14.07;;;7.80;;
70078;SDS011;57451;52.496;13.456;2023-09-12T11:45:50;13.60;;;7.63;;
70078;SDS011;57451;52.496;13.456;2023-09-12T11:48:19;13.25;;;7.68;;
70078;SDS011;57451;52.496;13.456;2023-09-12T11:50:51;15.55;;;7.88;;
70078;SDS011;57451;52.496;13.456;2023-09-12T11:53:20;13.50;;;7.93;;
70078;SDS011;57451;52.496;13.456;2023-09-12T11:55:49;12.88;;;7.90;;
70078;SDS011;57451;52.496;13.456;2023-09-12T11:58:20;12.17;;;8.13;;
70078;SDS011;57451;52.496;13.456;2023-09-12T12:00:49;13.60;;;7.70;;
70078;SDS011;57451;52.496;13.456;2023-09-12T12:03:19;13.50;;;7.57;;
70078;SDS011;57451;52.496;13.456;2023-09-12T12:05:48;11.77;;;7.32;;
70078;SDS011;57451;52.496;13.456;2023-09-12T12:08:17;11.10;;;7.45;;
70078;SDS011;57451;52.496;13.456;2023-09-12T12:10:57;14.10;;;7.30;;
70078;SDS011;57451;52.496;13.456;2023-09-12T12:13:26;11.20;;;7.07;;
70078;SDS011;57451;52.496;13.456;2023-09-12T12:15:56;9.32;;;7.30;;
70078;SDS011;57451;52.496;13.456;2023-09-12T12:18:24;9.55;;;7.00;;
70078;SDS011;57451;52.496;13.456;2023-09-12T12:20:53;8.75;;;6.82;;
70078;SDS011;57451;52.496;13.456;2023-09-12T12:23:21;13.83;;;6.93;;
70078;SDS011;57451;52.496;13.456;2023-09-12T12:25:48;11.43;;;7.10;;
70078;SDS011;57451;52.496;13.456;2023-09-12T12:28:16;11.50;;;7.13;;
70078;SDS011;57451;52.496;13.456;2023-09-12T12:30:43;12.48;;;6.85;;
70078;SDS011;57451;52.496;13.456;2023-09-12T12:33:13;11.75;;;6.70;;
70078;SDS011;57451;52.496;13.456;2023-09-12T12:36:00;10.73;;;7.20;;
70078;SDS011;57451;52.496;13.456;2023-09-12T12:38:31;10.88;;;6.55;;
70078;SDS011;57451;52.496;13.456;2023-09-12T12:41:00;10.75;;;7.00;;
70078;SDS011;57451;52.496;13.456;2023-09-12T12:43:28;12.80;;;7.53;;
70078;SDS011;57451;52.496;13.456;2023-09-12T12:45:57;11.15;;;7.00;;
70078;SDS011;57451;52.496;13.456;2023-09-12T12:48:33;11.17;;;6.87;;
70078;SDS011;57451;52.496;13.456;2023-09-12T12:51:12;12.50;;;7.22;;
70078;SDS011;57451;52.496;13.456;2023-09-12T12:53:44;9.93;;;6.75;;
70078;SDS011;57451;52.496;13.456;2023-09-12T12:56:20;9.18;;;6.75;;
70078;SDS011;57451;52.496;13.456;2023-09-12T12:58:49;11.23;;;6.68;;
70078;SDS011;57451;52.496;13.456;2023-09-12T13:01:18;10.23;;;6.93;;
70078;SDS011;57451;52.496;13.456;2023-09-12T13:03:47;11.32;;;6.47;;
70078;SDS011;57451;52.496;13.456;2023-09-12T13:06:17;14.50;;;7.70;;
70078;SDS011;57451;52.496;13.456;2023-09-12T13:08:47;9.43;;;6.25;;
70078;SDS011;57451;52.496;13.456;2023-09-12T13:11:16;8.70;;;6.72;;
70078;SDS011;57451;52.496;13.456;2023-09-12T13:13:44;10.20;;;6.30;;
70078;SDS011;57451;52.496;13.456;2023-09-12T13:16:13;11.05;;;7.20;;
70078;SDS011;57451;52.496;13.456;2023-09-12T13:18:41;15.43;;;6.80;;
70078;SDS011;57451;52.496;13.456;2023-09-12T13:21:10;10.88;;;6.75;;
70078;SDS011;57451;52.496;13.456;2023-09-12T13:23:38;9.90;;;6.15;;
70078;SDS011;57451;52.496;13.456;2023-09-12T13:26:07;10.30;;;6.47;;
70078;SDS011;57451;52.496;13.456;2023-09-12T13:28:36;12.63;;;6.47;;
70078;SDS011;57451;52.496;13.456;2023-09-12T13:31:03;13.65;;;6.32;;
70078;SDS011;57451;52.496;13.456;2023-09-12T13:33:31;10.00;;;6.57;;
70078;SDS011;57451;52.496;13.456;2023-09-12T13:35:59;10.85;;;6.55;;
70078;SDS011;57451;52.496;13.456;2023-09-12T13:38:27;12.87;;;7.37;;
70078;SDS011;57451;52.496;13.456;2023-09-12T13:40:56;11.48;;;6.45;;
70078;SDS011;57451;52.496;13.456;2023-09-12T13:43:23;12.00;;;7.03;;
70078;SDS011;57451;52.496;13.456;2023-09-12T13:45:51;11.52;;;6.80;;
70078;SDS011;57451;52.496;13.456;2023-09-12T13:48:18;11.52;;;7.28;;
70078;SDS011;57451;52.496;13.456;2023-09-12T13:50:46;12.53;;;7.03;;
70078;SDS011;57451;52.496;13.456;2023-09-12T13:53:14;14.25;;;7.47;;
70078;SDS011;57451;52.496;13.456;2023-09-12T13:55:43;14.05;;;6.78;;
70078;SDS011;57451;52.496;13.456;2023-09-12T13:58:10;16.30;;;7.50;;
70078;SDS011;57451;52.496;13.456;2023-09-12T14:00:38;10.95;;;6.55;;
70078;SDS011;57451;52.496;13.456;2023-09-12T14:03:05;12.27;;;6.83;;
70078;SDS011;57451;52.496;13.456;2023-09-12T14:05:33;13.25;;;6.57;;
70078;SDS011;57451;52.496;13.456;2023-09-12T14:08:01;8.70;;;6.78;;
70078;SDS011;57451;52.496;13.456;2023-09-12T14:10:29;11.40;;;6.60;;
70078;SDS011;57451;52.496;13.456;2023-09-12T14:13:04;12.50;;;6.80;;
70078;SDS011;57451;52.496;13.456;2023-09-12T14:15:46;9.47;;;6.70;;
70078;SDS011;57451;52.496;13.456;2023-09-12T14:18:17;12.23;;;7.78;;
70078;SDS011;57451;52.496;13.456;2023-09-12T14:20:46;10.70;;;6.70;;
70078;SDS011;57451;52.496;13.456;2023-09-12T14:23:14;12.95;;;7.32;;
70078;SDS011;57451;52.496;13.456;2023-09-12T14:25:42;8.10;;;6.57;;
70078;SDS011;57451;52.496;13.456;2023-09-12T14:28:11;11.37;;;6.90;;
70078;SDS011;57451;52.496;13.456;2023-09-12T14:30:38;10.13;;;7.10;;
70078;SDS011;57451;52.496;13.456;2023-09-12T14:33:10;10.73;;;6.57;;